createdAt,value
2024-01-24T00:00:34.082Z,1.47
2024-01-24T00:03:01.167Z,1.27
2024-01-24T00:05:28.210Z,4.90
2024-01-24T00:07:55.580Z,2.40
2024-01-24T00:10:23.134Z,1.97
2024-01-24T00:12:50.268Z,1.17
2024-01-24T00:15:17.299Z,3.53
2024-01-24T00:17:44.296Z,1.50
2024-01-24T00:20:13.770Z,2.03
2024-01-24T00:22:41.477Z,2.93
2024-01-24T00:25:08.726Z,1.40
2024-01-24T00:27:35.713Z,0.70
2024-01-24T00:30:02.673Z,4.43
2024-01-24T00:32:29.740Z,1.83
2024-01-24T00:34:56.865Z,4.53
2024-01-24T00:37:24.432Z,1.33
2024-01-24T00:39:51.380Z,1.43
2024-01-24T00:42:18.416Z,4.43
2024-01-24T00:44:48.706Z,2.40
2024-01-24T00:47:15.690Z,2.00
2024-01-24T00:49:42.913Z,2.17
2024-01-24T00:52:10.158Z,1.80
2024-01-24T00:54:37.121Z,2.57
2024-01-24T00:57:04.704Z,1.83
2024-01-24T00:59:31.688Z,1.43
2024-01-24T01:01:58.665Z,3.00
2024-01-24T01:04:25.654Z,1.37
2024-01-24T01:06:52.684Z,1.80
2024-01-24T01:09:19.614Z,2.47
2024-01-24T01:11:46.556Z,0.93
2024-01-24T01:14:13.788Z,1.43
2024-01-24T01:16:40.716Z,0.77
2024-01-24T01:19:07.818Z,1.60
2024-01-24T01:21:35.082Z,2.97
2024-01-24T01:24:02.130Z,1.60
2024-01-24T01:26:29.195Z,2.00
2024-01-24T01:28:56.143Z,3.90
2024-01-24T01:31:23.230Z,1.07
2024-01-24T01:33:50.273Z,1.90
2024-01-24T01:36:22.925Z,1.37
2024-01-24T01:38:51.140Z,2.60
2024-01-24T01:41:18.609Z,0.97
2024-01-24T01:43:46.341Z,0.53
2024-01-24T01:46:22.927Z,1.10
2024-01-24T01:48:51.847Z,2.73
2024-01-24T01:51:21.173Z,2.50
2024-01-24T01:53:49.527Z,0.40
2024-01-24T01:56:19.941Z,0.73
2024-01-24T01:58:48.301Z,0.83
2024-01-24T02:01:17.077Z,1.03
2024-01-24T02:03:45.146Z,2.53
2024-01-24T02:06:12.464Z,0.70
2024-01-24T02:08:41.050Z,1.90
2024-01-24T02:11:08.244Z,1.70
2024-01-24T02:13:35.298Z,2.30
2024-01-24T02:16:04.789Z,2.37
2024-01-24T02:18:32.054Z,0.73
2024-01-24T02:20:59.428Z,1.23
2024-01-24T02:23:27.699Z,0.50
2024-01-24T02:25:55.587Z,1.73
2024-01-24T02:28:22.481Z,2.40
2024-01-24T02:30:49.582Z,1.33
2024-01-24T02:33:16.973Z,2.10
2024-01-24T02:35:44.113Z,3.57
2024-01-24T02:38:11.134Z,3.23
2024-01-24T02:40:38.127Z,0.70
2024-01-24T02:43:05.469Z,1.77
2024-01-24T02:45:33.111Z,1.83
2024-01-24T02:48:00.341Z,4.80
2024-01-24T02:50:27.608Z,0.70
2024-01-24T02:52:54.627Z,1.23
2024-01-24T02:55:22.287Z,1.70
2024-01-24T02:57:49.892Z,3.13
2024-01-24T03:00:17.461Z,1.30
2024-01-24T03:02:44.570Z,0.80
2024-01-24T03:05:11.533Z,2.20
2024-01-24T03:07:39.489Z,0.53
2024-01-24T03:10:07.257Z,1.50
2024-01-24T03:12:34.551Z,1.80
2024-01-24T03:15:01.617Z,2.43
2024-01-24T03:17:28.693Z,2.23
2024-01-24T03:19:56.296Z,1.50
2024-01-24T03:22:26.260Z,2.87
2024-01-24T03:24:54.004Z,2.77
2024-01-24T03:27:21.197Z,1.90
2024-01-24T03:29:48.189Z,2.33
2024-01-24T03:32:15.261Z,2.60
2024-01-24T03:34:42.320Z,1.63
2024-01-24T03:37:09.407Z,1.03
2024-01-24T03:39:37.378Z,0.90
2024-01-24T03:42:05.012Z,1.23
2024-01-24T03:44:32.029Z,1.70
2024-01-24T03:46:59.705Z,3.70
2024-01-24T03:49:26.856Z,1.00
2024-01-24T03:51:54.494Z,2.67
2024-01-24T03:54:21.545Z,2.37
2024-01-24T03:56:48.474Z,1.03
2024-01-24T03:59:15.684Z,2.37
2024-01-24T04:01:43.673Z,1.17
2024-01-24T04:04:10.946Z,1.20
2024-01-24T04:06:38.106Z,1.03
2024-01-24T04:09:05.249Z,1.43
2024-01-24T04:11:32.207Z,1.07
2024-01-24T04:13:59.146Z,1.60
2024-01-24T04:16:26.607Z,2.37
2024-01-24T04:18:53.836Z,1.37
2024-01-24T04:21:20.977Z,1.63
2024-01-24T04:23:47.971Z,3.00
2024-01-24T04:26:15.407Z,1.53
2024-01-24T04:28:42.707Z,2.70
2024-01-24T04:31:10.005Z,2.80
2024-01-24T04:33:37.563Z,2.70
2024-01-24T04:36:05.486Z,2.60
2024-01-24T04:38:32.548Z,2.07
2024-01-24T04:40:59.538Z,3.10
2024-01-24T04:43:26.502Z,0.67
2024-01-24T04:45:53.506Z,2.00
2024-01-24T04:48:20.774Z,1.53
2024-01-24T04:50:47.947Z,1.97
2024-01-24T04:53:14.891Z,1.67
2024-01-24T04:55:41.900Z,2.47
2024-01-24T04:58:08.912Z,2.13
2024-01-24T05:00:35.974Z,1.03
2024-01-24T05:03:03.516Z,2.07
2024-01-24T05:05:30.612Z,2.87
2024-01-24T05:07:57.561Z,3.00
2024-01-24T05:10:24.813Z,1.43
2024-01-24T05:12:52.098Z,0.77
2024-01-24T05:15:19.282Z,3.57
2024-01-24T05:17:46.514Z,2.70
2024-01-24T05:20:13.580Z,0.97
2024-01-24T05:22:40.681Z,1.83
2024-01-24T05:25:08.058Z,1.97
2024-01-24T05:27:35.102Z,1.57
2024-01-24T05:30:11.814Z,1.27
2024-01-24T05:32:43.739Z,3.30
2024-01-24T05:35:10.866Z,3.07
2024-01-24T05:37:37.850Z,0.70
2024-01-24T05:40:05.664Z,2.80
2024-01-24T05:42:34.016Z,1.37
2024-01-24T05:45:01.130Z,3.33
2024-01-24T05:47:28.217Z,2.00
2024-01-24T05:49:55.286Z,1.20
2024-01-24T05:52:22.279Z,1.47
2024-01-24T05:54:49.617Z,3.87
2024-01-24T05:57:16.885Z,0.80
2024-01-24T05:59:43.797Z,1.30
2024-01-24T06:02:10.846Z,1.33
2024-01-24T06:04:38.038Z,2.30
2024-01-24T06:07:05.931Z,2.10
2024-01-24T06:09:33.270Z,1.70
2024-01-24T06:12:00.763Z,3.17
2024-01-24T06:14:27.873Z,2.73
2024-01-24T06:16:54.988Z,4.63
2024-01-24T06:19:22.027Z,1.00
2024-01-24T06:21:49.219Z,1.13
2024-01-24T06:24:16.357Z,1.83
2024-01-24T06:26:43.849Z,2.57
2024-01-24T06:29:10.857Z,1.50
2024-01-24T06:31:37.846Z,1.10
2024-01-24T06:34:05.079Z,1.63
2024-01-24T06:36:32.118Z,2.20
2024-01-24T06:38:59.169Z,2.10
2024-01-24T06:41:26.184Z,1.17
2024-01-24T06:43:53.151Z,0.90
2024-01-24T06:46:20.255Z,1.20
2024-01-24T06:48:47.443Z,1.57
2024-01-24T06:51:14.712Z,0.50
2024-01-24T06:53:41.794Z,0.90
2024-01-24T06:56:09.896Z,0.60
2024-01-24T06:58:39.585Z,0.53
2024-01-24T07:01:06.785Z,0.80
2024-01-24T07:03:34.453Z,0.63
2024-01-24T07:06:01.732Z,0.63
2024-01-24T07:08:28.692Z,0.40
2024-01-24T07:10:56.153Z,0.40
2024-01-24T07:13:23.174Z,0.40
2024-01-24T07:15:50.249Z,1.13
2024-01-24T07:18:17.432Z,0.50
2024-01-24T07:20:44.507Z,0.57
2024-01-24T07:23:11.733Z,1.13
2024-01-24T07:25:38.720Z,1.10
2024-01-24T07:28:07.798Z,0.83
2024-01-24T07:30:34.906Z,0.37
2024-01-24T07:33:04.555Z,0.50
2024-01-24T07:35:31.719Z,0.57
2024-01-24T07:37:59.164Z,0.30
2024-01-24T07:40:26.076Z,0.30
2024-01-24T07:42:54.899Z,0.20
2024-01-24T07:45:23.718Z,0.30
2024-01-24T07:47:52.420Z,0.30
2024-01-24T07:50:20.298Z,0.60
2024-01-24T07:52:48.844Z,0.30
2024-01-24T07:55:19.770Z,0.73
2024-01-24T07:57:52.027Z,0.40
2024-01-24T08:00:19.792Z,0.43
2024-01-24T08:02:49.023Z,0.30
2024-01-24T08:05:18.752Z,0.27
2024-01-24T08:07:45.832Z,0.27
2024-01-24T08:10:13.815Z,0.30
2024-01-24T08:12:41.287Z,0.83
2024-01-24T08:15:09.350Z,0.30
2024-01-24T08:17:38.100Z,0.10
2024-01-24T08:20:06.311Z,0.50
2024-01-24T08:22:33.442Z,1.50
2024-01-24T08:25:00.523Z,0.50
2024-01-24T08:27:27.901Z,0.20
2024-01-24T08:29:55.117Z,0.50
2024-01-24T08:32:22.188Z,0.20
2024-01-24T08:34:49.285Z,0.40
2024-01-24T08:37:16.361Z,0.23
2024-01-24T08:39:43.412Z,0.57
2024-01-24T08:42:10.508Z,0.97
2024-01-24T08:44:37.673Z,0.20
2024-01-24T08:47:04.891Z,0.17
2024-01-24T08:49:32.596Z,0.20
2024-01-24T08:52:00.393Z,0.20
2024-01-24T08:54:28.058Z,0.10
2024-01-24T08:56:56.532Z,0.10
2024-01-24T08:59:23.499Z,0.10
2024-01-24T09:01:50.634Z,1.10
2024-01-24T09:04:18.184Z,0.30
2024-01-24T09:06:45.786Z,0.90
2024-01-24T09:09:15.449Z,0.40
2024-01-24T09:11:50.543Z,0.20
2024-01-24T09:14:25.456Z,0.20
2024-01-24T09:16:52.985Z,0.20
2024-01-24T09:19:20.241Z,0.10
2024-01-24T09:21:47.344Z,0.43
2024-01-24T09:24:14.665Z,0.20
2024-01-24T09:26:42.358Z,0.10
2024-01-24T09:29:13.291Z,0.20
2024-01-24T09:31:46.684Z,0.10
2024-01-24T09:34:14.319Z,0.20
2024-01-24T09:36:41.707Z,0.20
2024-01-24T09:39:10.412Z,0.50
2024-01-24T09:41:42.621Z,0.20
2024-01-24T09:44:10.970Z,0.10
2024-01-24T09:46:38.912Z,0.43
2024-01-24T09:49:08.043Z,0.10
2024-01-24T09:51:36.545Z,1.13
2024-01-24T09:54:08.428Z,0.80
2024-01-24T09:56:38.149Z,0.23
2024-01-24T09:59:06.321Z,0.40
2024-01-24T10:01:36.153Z,0.20
2024-01-24T10:04:04.118Z,0.20
2024-01-24T10:06:32.156Z,0.33
2024-01-24T10:08:59.863Z,0.10
2024-01-24T10:11:28.025Z,0.20
2024-01-24T10:13:58.677Z,0.63
2024-01-24T10:16:27.439Z,0.20
2024-01-24T10:18:58.219Z,1.03
2024-01-24T10:21:27.201Z,1.60
2024-01-24T10:23:59.220Z,0.53
2024-01-24T10:26:31.044Z,0.50
2024-01-24T10:28:58.205Z,0.10
2024-01-24T10:31:25.951Z,0.53
2024-01-24T10:33:57.396Z,0.13
2024-01-24T10:36:28.250Z,1.00
2024-01-24T10:39:04.808Z,0.50
2024-01-24T10:41:34.359Z,0.73
2024-01-24T10:44:08.167Z,0.43
2024-01-24T10:46:37.666Z,0.47
2024-01-24T10:49:06.755Z,0.60
2024-01-24T10:51:35.079Z,1.90
2024-01-24T10:54:05.652Z,1.30
2024-01-24T10:56:35.187Z,0.20
2024-01-24T10:59:06.828Z,1.13
2024-01-24T11:01:35.991Z,0.40
2024-01-24T11:04:25.955Z,1.27
2024-01-24T11:07:16.966Z,0.20
2024-01-24T11:10:25.341Z,0.30
2024-01-24T11:12:53.195Z,0.30
2024-01-24T11:15:22.419Z,0.63
2024-01-24T11:18:25.613Z,0.50
2024-01-24T11:20:55.191Z,0.47
2024-01-24T11:23:42.340Z,0.93
2024-01-24T11:26:11.082Z,0.27
2024-01-24T11:28:39.561Z,0.23
2024-01-24T11:31:08.512Z,0.10
2024-01-24T11:33:36.026Z,0.20
2024-01-24T11:36:05.526Z,0.20
2024-01-24T11:38:37.208Z,0.30
2024-01-24T11:41:13.028Z,0.20
2024-01-24T11:43:43.946Z,2.13
2024-01-24T11:46:12.781Z,1.90
2024-01-24T11:48:40.863Z,1.00
2024-01-24T11:51:12.276Z,0.63
2024-01-24T11:53:39.478Z,0.73
2024-01-24T11:56:16.193Z,0.67
2024-01-24T11:58:44.048Z,0.40
2024-01-24T12:01:12.398Z,0.40
2024-01-24T12:03:48.056Z,0.50
2024-01-24T12:06:15.514Z,0.60
2024-01-24T12:08:50.165Z,1.50
2024-01-24T12:11:18.747Z,0.20
2024-01-24T12:13:46.580Z,1.20
2024-01-24T12:16:13.820Z,0.20
2024-01-24T12:18:42.634Z,0.10
2024-01-24T12:21:10.822Z,0.20
2024-01-24T12:23:38.660Z,0.10
2024-01-24T12:26:06.223Z,0.10
2024-01-24T12:28:33.940Z,0.33
2024-01-24T12:31:05.451Z,0.20
2024-01-24T12:33:35.824Z,0.20
2024-01-24T12:36:07.659Z,0.10
2024-01-24T12:38:38.221Z,0.20
2024-01-24T12:41:05.990Z,0.20
2024-01-24T12:43:33.408Z,0.20
2024-01-24T12:46:09.077Z,0.30
2024-01-24T12:48:38.404Z,0.20
2024-01-24T12:51:06.611Z,0.23
2024-01-24T12:53:33.992Z,0.10
2024-01-24T12:56:01.342Z,0.30
2024-01-24T12:58:28.369Z,0.60
2024-01-24T13:00:58.787Z,0.63
2024-01-24T13:03:28.630Z,1.50
2024-01-24T13:05:57.652Z,0.10
2024-01-24T13:08:25.677Z,0.20
2024-01-24T13:10:53.606Z,0.93
2024-01-24T13:13:21.337Z,0.10
2024-01-24T13:15:49.848Z,0.30
2024-01-24T13:18:18.068Z,0.10
2024-01-24T13:20:46.042Z,0.10
2024-01-24T13:23:13.021Z,0.20
2024-01-24T13:25:40.188Z,0.10
2024-01-24T13:28:10.837Z,0.93
2024-01-24T13:30:38.589Z,0.10
2024-01-24T13:33:06.982Z,0.20
2024-01-24T13:35:34.164Z,0.57
2024-01-24T13:38:02.845Z,0.10
2024-01-24T13:40:30.837Z,0.20
2024-01-24T13:42:58.030Z,0.20
2024-01-24T13:45:25.818Z,0.53
2024-01-24T13:48:05.114Z,0.20
2024-01-24T13:50:37.156Z,0.20
2024-01-24T13:53:05.226Z,0.10
2024-01-24T13:55:32.466Z,0.60
2024-01-24T13:58:01.858Z,0.30
2024-01-24T14:00:29.154Z,0.30
2024-01-24T14:02:56.798Z,1.37
2024-01-24T14:05:23.846Z,0.10
2024-01-24T14:07:52.374Z,0.20
2024-01-24T14:10:19.822Z,0.30
2024-01-24T14:12:47.489Z,0.40
2024-01-24T14:15:24.351Z,0.43
2024-01-24T14:18:00.331Z,0.30
2024-01-24T14:20:27.555Z,0.20
2024-01-24T14:22:54.546Z,0.10
2024-01-24T14:25:21.611Z,0.10
2024-01-24T14:27:48.822Z,0.43
2024-01-24T14:30:16.429Z,0.30
2024-01-24T14:32:43.599Z,0.17
2024-01-24T14:35:14.981Z,0.10
2024-01-24T14:37:42.162Z,0.30
2024-01-24T14:40:09.679Z,0.20
2024-01-24T14:42:36.806Z,0.40
2024-01-24T14:45:04.786Z,0.30
2024-01-24T14:47:31.760Z,0.00
2024-01-24T14:50:01.782Z,2.80
2024-01-24T14:52:28.796Z,0.00
2024-01-24T14:54:55.837Z,0.20
2024-01-24T14:57:22.898Z,0.30
2024-01-24T14:59:49.945Z,1.30
2024-01-24T15:02:17.497Z,0.20
2024-01-24T15:04:44.616Z,0.20
2024-01-24T15:07:11.637Z,0.43
2024-01-24T15:09:38.754Z,0.23
2024-01-24T15:12:06.799Z,1.07
2024-01-24T15:14:33.985Z,0.73
2024-01-24T15:17:01.033Z,0.20
2024-01-24T15:19:29.946Z,0.20
2024-01-24T15:21:57.428Z,0.50
2024-01-24T15:24:25.392Z,0.10
2024-01-24T15:26:52.545Z,3.07
2024-01-24T15:29:19.735Z,2.27
2024-01-24T15:31:47.595Z,1.90
2024-01-24T15:34:15.998Z,0.30
2024-01-24T15:36:44.305Z,2.47
2024-01-24T15:39:13.605Z,0.40
2024-01-24T15:41:42.708Z,0.80
2024-01-24T15:44:09.812Z,0.70
2024-01-24T15:46:36.944Z,0.57
2024-01-24T15:49:04.501Z,1.27
2024-01-24T15:51:32.273Z,2.33
2024-01-24T15:53:59.349Z,0.40
2024-01-24T15:56:26.437Z,1.63
2024-01-24T15:58:54.065Z,1.60
2024-01-24T16:01:22.590Z,0.63
2024-01-24T16:03:49.959Z,1.17
2024-01-24T16:06:17.248Z,0.53
2024-01-24T16:08:44.643Z,1.07
2024-01-24T16:11:12.071Z,0.83
2024-01-24T16:13:39.114Z,1.57
2024-01-24T16:16:08.039Z,0.83
2024-01-24T16:18:35.580Z,1.30
2024-01-24T16:21:04.216Z,1.60
2024-01-24T16:23:31.254Z,1.17
2024-01-24T16:25:58.278Z,1.77
2024-01-24T16:28:25.767Z,0.70
2024-01-24T16:30:52.746Z,1.53
2024-01-24T16:33:19.849Z,2.57
2024-01-24T16:35:47.598Z,0.53
2024-01-24T16:38:15.069Z,3.23
2024-01-24T16:40:42.143Z,1.00
2024-01-24T16:43:10.381Z,1.10
2024-01-24T16:45:37.413Z,1.53
2024-01-24T16:48:04.685Z,0.77
2024-01-24T16:50:31.753Z,1.57
2024-01-24T16:52:58.738Z,1.40
2024-01-24T16:55:25.690Z,0.40
2024-01-24T16:57:52.758Z,1.13
2024-01-24T17:00:20.102Z,0.60
2024-01-24T17:02:51.732Z,1.63
2024-01-24T17:05:24.862Z,1.53
2024-01-24T17:07:51.973Z,0.87
2024-01-24T17:10:19.081Z,1.57
2024-01-24T17:12:46.107Z,1.40
2024-01-24T17:15:14.719Z,1.40
2024-01-24T17:17:43.080Z,2.60
2024-01-24T17:20:10.378Z,1.77
2024-01-24T17:22:37.521Z,1.90
2024-01-24T17:25:06.953Z,1.73
2024-01-24T17:27:34.225Z,1.53
2024-01-24T17:30:01.187Z,2.27
2024-01-24T17:32:28.327Z,3.87
2024-01-24T17:34:55.353Z,4.30
2024-01-24T17:37:22.503Z,2.43
2024-01-24T17:39:52.127Z,2.00
2024-01-24T17:42:19.329Z,3.30
2024-01-24T17:44:46.721Z,2.53
2024-01-24T17:47:14.035Z,3.33
2024-01-24T17:49:41.557Z,2.83
2024-01-24T17:52:08.979Z,2.50
2024-01-24T17:54:36.312Z,1.90
2024-01-24T17:57:04.549Z,3.03
2024-01-24T17:59:31.627Z,2.97
2024-01-24T18:01:58.870Z,3.07
2024-01-24T18:04:27.397Z,3.50
2024-01-24T18:06:54.526Z,3.03
2024-01-24T18:09:22.543Z,2.13
2024-01-24T18:11:49.595Z,6.13
2024-01-24T18:14:16.531Z,2.10
2024-01-24T18:16:43.615Z,2.03
2024-01-24T18:19:10.978Z,6.43
2024-01-24T18:21:38.082Z,3.80
2024-01-24T18:24:06.072Z,2.50
2024-01-24T18:26:33.503Z,1.53
2024-01-24T18:29:02.101Z,4.40
2024-01-24T18:31:29.140Z,4.47
2024-01-24T18:33:56.424Z,9.30
2024-01-24T18:36:23.585Z,8.43
2024-01-24T18:38:50.657Z,11.87
2024-01-24T18:41:18.986Z,3.53
2024-01-24T18:43:48.684Z,3.53
2024-01-24T18:46:19.126Z,3.03
2024-01-24T18:48:46.872Z,3.93
2024-01-24T18:51:17.186Z,1.37
2024-01-24T18:53:45.445Z,2.93
2024-01-24T18:56:12.856Z,4.20
2024-01-24T18:58:40.846Z,2.70
2024-01-24T19:01:08.355Z,3.70
2024-01-24T19:03:35.596Z,2.23
2024-01-24T19:06:03.033Z,3.60
2024-01-24T19:08:33.678Z,1.60
2024-01-24T19:11:05.645Z,4.23
2024-01-24T19:13:34.777Z,3.03
2024-01-24T19:20:53.977Z,5.10
2024-01-24T19:23:20.878Z,5.90
2024-01-24T19:25:48.170Z,3.30
2024-01-24T19:28:15.237Z,4.70
2024-01-24T19:30:42.460Z,3.97
2024-01-24T19:33:09.653Z,6.57
2024-01-24T19:35:37.567Z,3.47
2024-01-24T19:38:05.237Z,6.43
2024-01-24T19:40:34.381Z,2.57
2024-01-24T19:43:02.298Z,5.40
2024-01-24T19:45:29.769Z,2.97
2024-01-24T19:47:57.175Z,3.03
2024-01-24T19:50:24.677Z,6.83
2024-01-24T19:52:52.434Z,2.97
2024-01-24T19:55:21.327Z,2.10
2024-01-24T19:57:48.410Z,3.23
2024-01-24T20:00:15.932Z,5.13
2024-01-24T20:02:43.024Z,3.90
2024-01-24T20:05:10.049Z,2.67
2024-01-24T20:07:37.167Z,0.87
2024-01-24T20:10:05.209Z,4.40
2024-01-24T20:12:32.292Z,2.67
2024-01-24T20:15:00.545Z,4.57
2024-01-24T20:17:27.796Z,7.03
2024-01-24T20:19:55.367Z,4.40
2024-01-24T20:22:22.434Z,2.73
2024-01-24T20:24:49.540Z,5.27
2024-01-24T20:27:17.988Z,2.30
2024-01-24T20:29:47.637Z,2.67
2024-01-24T20:32:15.758Z,3.73
2024-01-24T20:34:42.961Z,4.70
2024-01-24T20:37:10.662Z,6.23
2024-01-24T20:39:38.415Z,2.93
2024-01-24T20:42:11.020Z,7.33
2024-01-24T20:44:40.936Z,4.43
2024-01-24T20:47:08.259Z,4.77
2024-01-24T20:49:35.559Z,4.77
2024-01-24T20:52:03.026Z,5.57
2024-01-24T20:54:30.094Z,6.97
2024-01-24T20:56:57.062Z,17.63
2024-01-24T20:59:25.845Z,17.70
2024-01-24T21:01:55.824Z,20.13
2024-01-24T21:04:23.276Z,21.90
2024-01-24T21:06:51.354Z,7.93
2024-01-24T21:09:18.513Z,6.93
2024-01-24T21:11:45.446Z,8.40
2024-01-24T21:14:12.382Z,10.03
2024-01-24T21:16:39.484Z,7.97
2024-01-24T21:19:06.640Z,4.27
2024-01-24T21:21:33.687Z,7.27
2024-01-24T21:24:00.690Z,5.90
2024-01-24T21:26:27.669Z,4.67
2024-01-24T21:28:54.573Z,4.07
2024-01-24T21:31:22.631Z,5.13
2024-01-24T21:33:49.705Z,8.67
2024-01-24T21:36:16.697Z,5.23
2024-01-24T21:38:43.583Z,7.77
2024-01-24T21:41:10.684Z,11.53
2024-01-24T21:43:37.604Z,5.87
2024-01-24T21:46:05.285Z,6.77
2024-01-24T21:48:32.296Z,7.87
2024-01-24T21:50:59.321Z,10.80
2024-01-24T21:53:26.300Z,9.17
2024-01-24T21:55:53.281Z,5.57
2024-01-24T21:58:20.279Z,6.87
2024-01-24T22:00:47.436Z,8.33
2024-01-24T22:03:14.675Z,4.77
2024-01-24T22:05:41.548Z,9.50
2024-01-24T22:08:08.844Z,8.20
2024-01-24T22:10:35.731Z,4.30
2024-01-24T22:13:02.706Z,9.73
2024-01-24T22:15:29.648Z,6.83
2024-01-24T22:17:56.729Z,5.80
2024-01-24T22:20:23.639Z,4.53
2024-01-24T22:22:50.688Z,5.30
2024-01-24T22:25:17.682Z,10.70
2024-01-24T22:27:44.762Z,5.90
2024-01-24T22:30:12.507Z,2.63
2024-01-24T22:32:39.521Z,6.00
2024-01-24T22:35:08.137Z,11.17
2024-01-24T22:37:35.396Z,6.83
2024-01-24T22:40:02.544Z,6.97
2024-01-24T22:42:29.715Z,5.10
2024-01-24T22:44:56.865Z,6.93
2024-01-24T22:47:23.790Z,9.53
2024-01-24T22:49:51.167Z,6.20
2024-01-24T22:52:18.489Z,6.23
2024-01-24T22:54:45.577Z,4.33
2024-01-24T22:57:13.133Z,7.60
2024-01-24T22:59:40.193Z,7.00
2024-01-24T23:02:10.640Z,5.83
2024-01-24T23:04:37.919Z,10.30
2024-01-24T23:07:05.313Z,8.63
2024-01-24T23:09:32.299Z,6.03
2024-01-24T23:11:59.813Z,9.53
2024-01-24T23:14:26.784Z,8.33
2024-01-24T23:16:53.632Z,5.50
2024-01-24T23:19:20.760Z,8.87
2024-01-24T23:21:47.928Z,7.13
2024-01-24T23:24:14.946Z,7.80
2024-01-24T23:26:42.982Z,5.93
2024-01-24T23:29:10.614Z,6.50
2024-01-24T23:31:37.601Z,9.53
2024-01-24T23:34:04.664Z,7.87
2024-01-24T23:36:31.852Z,12.33
2024-01-24T23:38:59.519Z,5.30
2024-01-24T23:41:26.560Z,10.23
2024-01-24T23:43:53.526Z,7.80
2024-01-24T23:46:20.625Z,17.03
2024-01-24T23:48:47.857Z,10.67
2024-01-24T23:51:15.201Z,8.77
2024-01-24T23:53:43.451Z,9.20
2024-01-24T23:56:10.494Z,5.87
2024-01-24T23:58:38.185Z,5.83
